Latest Weather Observations for Dubbo

IDN60801

Issued at 9:35 am EST Wednesday 1 October 2014 (issued every 30 minutes, with the page automatically refreshed every 10 minutes)

About weather observations | Map of weather stations | Latest weather observations for NSW | Other Formats
Station Details ID: 065070 Name: DUBBO AIRPORT AWS Lat: -32.22 Lon: 148.58 Height: 284.0 m
Data from the previous 72 hours. | See also: Recent months at Dubbo
Date/Time
EST
Temp
°C
App
Temp
°C
Dew
Point
Rel
Hum
%
Delta-T
°C
Wind Press
QNH
hPa
Press
MSL
hPa
Rain
since 9 am
mm
Dir
 
Spd
km/h
Gust
km/h
Spd
kts
Gust
kts
01/09:30am 14.4 6.0 -1.2 34 6.5 SSW 33 46 18 25 1021.5 1021.3 0.0
01/09:00am 13.9 5.9 0.2 39 5.8 SSW 32 43 17 23 1021.4 1021.2 0.0
01/08:30am 13.1 5.2 0.8 43 5.3 S 32 43 17 23 1021.3 1021.1 0.0
01/08:00am 12.9 5.5 1.6 46 4.9 S 30 43 16 23 1021.0 1020.8 0.0
01/07:30am 12.3 6.2 2.5 51 4.3 S 24 35 13 19 1020.8 1020.6 0.0
01/07:00am 11.3 6.6 3.1 57 3.6 SW 17 24 9 13 1020.5 1020.3 0.0
01/06:43am 10.7 6.8 3.3 60 3.3 SW 13 17 7 9 1020.4 1020.2 0.0
01/06:33am 10.3 6.3 3.1 61 3.2 SW 13 19 7 10 1020.3 1020.1 0.0
01/06:30am 10.3 6.3 2.9 60 3.2 SW 13 20 7 11 1020.3 1020.1 0.0
01/06:00am 9.7 5.3 2.6 61 3.1 SW 15 19 8 10 1019.8 1019.6 0.0
01/05:30am 9.3 4.7 1.5 58 3.3 SW 15 19 8 10 1019.2 1019.1 0.0
01/05:00am 11.0 5.8 0.1 47 4.5 SSW 17 24 9 13 1018.8 1018.6 0.0
01/04:30am 11.2 5.6 -2.6 38 5.4 SSW 17 22 9 12 1018.2 1018.0 0.0
01/04:00am 12.0 6.4 -3.0 35 5.8 SSW 17 24 9 13 1017.9 1017.7 0.0
01/03:30am 12.9 5.3 -2.2 35 6.0 SSW 28 43 15 23 1017.5 1017.3 0.0
01/03:18am 13.2 5.6 0.6 42 5.4 SSW 30 48 16 26 1017.2 1017.0 0.0
01/03:00am 13.3 7.1 4.5 55 4.1 SSW 26 33 14 18 1017.2 1017.0 0.0
01/02:30am 13.8 9.5 6.9 63 3.4 S 19 24 10 13 1016.9 1016.7 0.0
01/02:00am 14.7 10.2 6.8 59 3.9 SSW 20 26 11 14 1016.5 1016.3 0.0
01/01:31am 15.5 6.9 6.5 55 4.4 SSW 41 59 22 32 1015.7 1015.5 0.0
01/01:30am 15.7 6.8 6.7 55 4.5 SSW 43 59 23 32 1015.7 1015.5 0.0
01/01:13am 18.0 9.2 3.5 38 6.9 SW 39 63 21 34 1015.1 1014.9 0.0
01/01:05am 19.3 11.5 1.8 31 8.1 SW 32 46 17 25 1014.6 1014.4 0.0
01/01:00am 18.2 12.1 2.5 35 7.3 SW 24 28 13 15 1014.4 1014.2 0.0
01/12:30am 14.5 10.6 3.3 47 5.1 W 13 19 7 10 1013.9 1013.7 0.0
01/12:00am 17.1 13.9 3.1 39 6.5 WNW 9 11 5 6 1013.7 1013.5 0.0
 
Date/Time
EST
Temp
°C
App
Temp
°C
Dew
Point
Rel
Hum
%
Delta-T
°C
Wind Press
QNH
hPa
Press
MSL
hPa
Rain
since 9 am
mm
Dir
 
Spd
km/h
Gust
km/h
Spd
kts
Gust
kts
30/11:30pm 17.9 14.7 3.0 37 7.0 WNW 9 13 5 7 1013.7 1013.5 0.0
30/11:00pm 17.9 13.9 2.6 36 7.1 WNW 13 17 7 9 1013.7 1013.5 0.0
30/10:30pm 20.3 15.6 3.1 32 8.2 W 17 20 9 11 1013.7 1013.5 0.0
30/10:00pm 22.3 17.0 2.9 28 9.4 W 20 28 11 15 1013.6 1013.4 0.0
30/09:30pm 23.8 17.9 3.7 27 10.0 W 24 32 13 17 1013.4 1013.2 0.0
30/09:00pm 19.7 15.8 5.4 39 7.1 WNW 15 17 8 9 1013.4 1013.2 0.0
30/08:30pm 19.0 16.3 5.8 42 6.6 WNW 9 13 5 7 1013.1 1012.9 0.0
30/08:00pm 19.7 17.1 6.1 41 6.9 WNW 9 11 5 6 1012.8 1012.5 0.0
30/07:30pm 20.5 17.8 5.7 38 7.5 NW 9 11 5 6 1012.5 1012.2 0.0
30/07:00pm 22.0 19.0 5.8 35 8.3 NW 11 15 6 8 1012.1 1011.9 0.0
30/06:30pm 23.5 20.5 5.9 32 9.1 NW 11 15 6 8 1011.8 1011.6 0.0
30/06:00pm 24.4 21.1 6.6 32 9.3 NNW 13 17 7 9 1011.6 1011.4 0.0
30/05:30pm 26.6 23.0 6.6 28 10.6 NNW 15 19 8 10 1011.6 1011.4 0.0
30/05:00pm 28.7 24.6 6.1 24 12.1 NW 17 20 9 11 1011.9 1011.7 0.0
30/04:30pm 29.8 24.1 5.1 21 13.0 NW 24 33 13 18 1011.9 1011.7 0.0
30/04:00pm 30.2 24.0 6.1 22 13.0 NW 28 37 15 20 1012.4 1012.1 0.0
30/03:30pm 29.6 22.2 5.0 21 12.9 WNW 33 46 18 25 1012.5 1012.2 0.0
30/03:11pm 30.2 22.8 4.8 20 13.4 NW 33 52 18 28 1012.3 1012.0 0.0
30/03:00pm 29.5 22.3 4.9 21 12.9 NW 32 43 17 23 1012.4 1012.1 0.0
30/02:43pm 30.1 22.8 4.7 20 13.3 NW 32 50 17 27 1012.4 1012.1 0.0
30/02:30pm 30.9 24.7 6.0 21 13.4 NW 28 39 15 21 1012.5 1012.2 0.0
30/02:00pm 28.5 22.3 6.0 24 12.0 NNW 28 35 15 19 1012.9 1012.6 0.0
30/01:30pm 28.5 21.5 6.0 24 12.0 NNW 32 43 17 23 1013.4 1013.2 0.0
30/01:00pm 28.4 22.0 5.3 23 12.1 NW 28 37 15 20 1014.1 1013.9 0.0
30/12:43pm 28.9 22.5 5.1 22 12.5 NW 28 48 15 26 1014.2 1014.0 0.0
30/12:30pm 29.0 22.5 6.4 24 12.1 NW 30 39 16 21 1014.7 1014.5 0.0
30/12:00pm 28.8 23.1 8.5 28 11.3 NNW 28 39 15 21 1014.8 1014.6 0.0
30/11:30am 29.5 23.2 9.1 28 11.5 NNW 32 43 17 23 1014.8 1014.6 0.0
30/11:00am 27.3 20.0 7.2 28 10.8 N 35 44 19 24 1015.0 1014.8 0.0
30/10:30am 26.6 21.7 8.6 32 9.9 NNW 24 33 13 18 1015.8 1015.6 0.0
30/10:00am 25.6 19.7 7.7 32 9.6 NW 28 39 15 21 1016.8 1016.6 0.0
30/09:30am 27.0 20.9 8.4 31 10.2 NNW 30 41 16 22 1016.5 1016.3 0.0
30/09:00am 25.3 19.6 8.3 34 9.2 N 28 35 15 19 1016.5 1016.3 0.0
30/08:30am 24.8 18.8 7.0 32 9.4 N 28 43 15 23 1016.5 1016.3 0.0
30/08:00am 24.2 20.2 9.0 38 8.3 NNW 20 30 11 16 1016.6 1016.4 0.0
30/07:30am 20.3 19.1 9.5 50 5.8 NNE 6 9 3 5 1016.4 1016.2 0.0
30/07:00am 16.5 15.2 10.1 66 3.4 E 7 9 4 5 1016.3 1016.1 0.0
30/06:30am 14.5 12.7 8.0 65 3.3 ENE 7 9 4 5 1016.1 1015.9 0.0
30/06:00am 12.7 10.8 6.5 66 3.0 NNE 6 7 3 4 1015.7 1015.5 0.0
30/05:30am 13.0 11.0 6.4 64 3.2 ENE 6 7 3 4 1015.4 1015.2 0.0
30/05:00am 13.9 11.8 6.7 62 3.5 ENE 7 9 4 5 1015.2 1015.0 0.0
30/04:30am 13.1 10.9 6.2 63 3.3 ENE 7 9 4 5 1015.0 1014.8 0.0
30/04:00am 13.7 11.1 6.1 60 3.7 NE 9 9 5 5 1014.9 1014.7 0.0
30/03:30am 14.4 12.3 6.7 60 3.8 NE 7 9 4 5 1014.9 1014.7 0.0
30/03:00am 14.2 11.3 6.3 59 3.8 NE 11 13 6 7 1015.0 1014.8 0.0
30/02:30am 14.7 11.4 6.5 58 4.0 NNE 13 15 7 8 1015.2 1015.0 0.0
30/02:00am 14.9 11.3 6.7 58 4.0 NE 15 15 8 8 1015.4 1015.2 0.0
30/01:30am 15.0 11.7 6.6 57 4.1 NNE 13 17 7 9 1015.5 1015.3 0.0
30/01:00am 15.8 12.2 6.8 55 4.5 NNE 15 19 8 10 1015.8 1015.6 0.0
30/12:30am 15.9 12.3 6.9 55 4.5 NNE 15 17 8 9 1016.1 1015.9 0.0
30/12:00am 16.2 13.3 6.6 53 4.8 NE 11 13 6 7 1016.4 1016.2 0.0
 
Date/Time
EST
Temp
°C
App
Temp
°C
Dew
Point
Rel
Hum
%
Delta-T
°C
Wind Press
QNH
hPa
Press
MSL
hPa
Rain
since 9 am
mm
Dir
 
Spd
km/h
Gust
km/h
Spd
kts
Gust
kts
29/11:30pm 15.2 11.6 6.7 57 4.2 NE 15 17 8 9 1016.4 1016.2 0.0
29/11:00pm 15.1 11.4 6.4 56 4.3 NE 15 17 8 9 1016.6 1016.4 0.0
29/10:30pm 16.3 13.4 6.4 52 4.9 NE 11 13 6 7 1016.9 1016.7 0.0
29/10:00pm 16.7 14.1 6.2 50 5.2 NE 9 11 5 6 1016.9 1016.7 0.0
29/09:30pm 17.2 14.6 6.1 48 5.5 NNE 9 11 5 6 1016.9 1016.7 0.0
29/09:00pm 17.1 14.5 6.0 48 5.5 NNE 9 11 5 6 1017.0 1016.8 0.0
29/08:30pm 17.6 15.3 5.5 45 5.9 NNE 7 9 4 5 1016.9 1016.7 0.0
29/08:00pm 18.6 16.3 5.5 42 6.5 NNE 7 9 4 5 1016.8 1016.6 0.0
29/07:30pm 19.5 16.7 5.2 39 7.1 N 9 9 5 5 1016.4 1016.2 0.0
29/07:00pm 20.0 17.6 5.3 38 7.3 N 7 11 4 6 1016.1 1015.9 0.0
29/06:30pm 21.7 19.0 5.6 35 8.2 N 9 11 5 6 1015.6 1015.4 0.0
29/06:00pm 23.4 20.0 5.8 32 9.0 NNW 13 15 7 8 1015.4 1015.2 0.0
29/05:30pm 25.9 22.5 6.0 28 10.4 NNW 13 17 7 9 1015.2 1015.0 0.0
29/05:00pm 27.6 23.5 4.6 23 11.9 NNW 15 20 8 11 1014.9 1014.7 0.0
29/04:30pm 28.4 23.7 5.3 23 12.1 NW 19 24 10 13 1014.8 1014.6 0.0
29/04:00pm 28.8 24.0 5.6 23 12.3 NW 20 30 11 16 1014.7 1014.5 0.0
29/03:30pm 28.8 24.6 5.6 23 12.3 NNW 17 24 9 13 1014.8 1014.6 0.0
29/03:00pm 28.6 23.5 4.2 21 12.6 NW 20 32 11 17 1014.9 1014.7 0.0
29/02:30pm 29.0 23.7 5.1 22 12.5 NW 22 32 12 17 1015.1 1014.9 0.0
29/02:00pm 29.3 24.8 6.0 23 12.4 WNW 19 22 10 12 1015.2 1015.0 0.0
29/01:30pm 29.3 24.8 6.0 23 12.4 NW 19 37 10 20 1015.5 1015.3 0.0
29/01:00pm 28.5 22.5 5.4 23 12.1 WNW 26 30 14 16 1016.0 1015.7 0.0
29/12:30pm 27.9 22.1 4.2 22 12.2 WNW 24 33 13 18 1016.4 1016.2 0.0
29/12:00pm 27.8 21.8 5.4 24 11.7 NNW 26 33 14 18 1016.5 1016.3 0.0
29/11:30am 27.4 21.0 5.1 24 11.6 NNW 28 39 15 21 1016.7 1016.5 0.0
29/11:00am 26.9 21.5 6.3 27 10.9 NNW 24 39 13 21 1017.3 1017.1 0.0
29/10:30am 26.4 20.0 5.4 26 10.9 NW 28 37 15 20 1017.6 1017.4 0.0
29/10:00am 25.3 19.7 5.5 28 10.2 NNW 24 32 13 17 1017.9 1017.7 0.0
29/09:30am 24.8 20.0 5.6 29 9.9 NW 20 28 11 15 1018.0 1017.8 0.0
29/09:00am 21.0 19.8 8.0 43 6.8 N 4 9 2 5 1018.1 1017.9 0.0
29/08:30am 18.9 17.2 8.3 50 5.6 ESE 7 11 4 6 1018.0 1017.8 0.0
29/08:00am 16.3 14.3 7.0 54 4.7 SE 7 11 4 6 1017.9 1017.7 0.0
29/07:30am 14.7 12.5 8.0 64 3.4 SE 9 11 5 6 1017.8 1017.6 0.0
29/07:00am 12.1 9.4 7.4 73 2.3 SE 11 11 6 6 1017.6 1017.4 0.0
29/06:30am 10.8 7.9 6.6 75 2.0 E 11 13 6 7 1017.5 1017.3 0.0
29/06:00am 9.8 6.7 5.6 75 1.9 E 11 13 6 7 1017.2 1017.0 0.0
29/05:30am 9.0 5.9 5.4 78 1.7 E 11 13 6 7 1017.0 1016.8 0.0
29/05:00am 9.0 5.5 5.6 79 1.6 E 13 15 7 8 1016.7 1016.5 0.0
29/04:30am 8.4 5.2 5.3 81 1.4 ESE 11 13 6 7 1016.6 1016.4 0.0
29/04:00am 7.7 4.2 5.3 85 1.1 SE 13 15 7 8 1016.6 1016.4 0.0
29/03:30am 7.9 4.0 5.5 85 1.1 SE 15 19 8 10 1017.0 1016.8 0.0
29/03:00am 8.7 5.6 5.6 81 1.4 SE 11 13 6 7 1017.3 1017.1 0.0
29/02:30am 10.1 7.8 5.7 74 2.1 E 7 9 4 5 1017.2 1017.0 0.0
29/02:00am 10.2 7.1 5.6 73 2.1 NE 11 13 6 7 1016.9 1016.7 0.0
29/01:30am 10.0 6.5 5.4 73 2.1 NE 13 15 7 8 1017.2 1017.0 0.0
29/01:00am 10.5 7.8 5.5 71 2.3 ENE 9 11 5 6 1017.7 1017.5 0.0
29/12:30am 10.4 7.3 5.4 71 2.3 NE 11 13 6 7 1017.9 1017.7 0.0
29/12:00am 10.9 8.2 5.7 70 2.4 ENE 9 11 5 6 1018.2 1018.0 0.0
 
Date/Time
EST
Temp
°C
App
Temp
°C
Dew
Point
Rel
Hum
%
Delta-T
°C
Wind Press
QNH
hPa
Press
MSL
hPa
Rain
since 9 am
mm
Dir
 
Spd
km/h
Gust
km/h
Spd
kts
Gust
kts
28/11:30pm 11.4 9.0 5.1 65 2.9 ENE 7 9 4 5 1018.3 1018.1 0.0
28/11:00pm 12.0 9.6 5.4 64 3.1 NE 7 7 4 4 1018.5 1018.3 0.0
28/10:30pm 12.8 10.9 5.0 59 3.7 NNE 4 7 2 4 1018.7 1018.5 0.0
28/10:00pm 13.6 12.6 5.7 59 3.8 CALM 0 0 0 0 1018.7 1018.5 0.0
28/09:30pm 13.3 11.9 5.7 60 3.6 NNW 2 7 1 4 1018.8 1018.6 0.0
28/09:00pm 11.9 10.8 4.9 62 3.2 CALM 0 0 0 0 1018.8 1018.6 0.0
28/08:30pm 13.7 11.3 5.1 56 4.1 NNE 7 11 4 6 1018.4 1018.2 0.0
28/08:00pm 14.1 11.2 4.7 53 4.4 N 9 11 5 6 1018.0 1017.8 0.0
28/07:30pm 15.9 12.0 5.2 49 5.2 N 15 17 8 9 1017.7 1017.5 0.0
28/07:00pm 16.7 13.2 5.3 47 5.5 N 13 15 7 8 1017.2 1017.0 0.0
28/06:30pm 17.3 14.1 4.9 44 6.0 N 11 13 6 7 1017.0 1016.8 0.0
28/06:00pm 19.6 15.2 4.5 37 7.4 N 17 20 9 11 1016.7 1016.5 0.0
28/05:30pm 22.5 17.9 3.6 29 9.3 NNW 17 19 9 10 1016.7 1016.5 0.0
28/05:00pm 23.9 19.6 3.2 26 10.2 NNW 15 22 8 12 1016.6 1016.4 0.0
28/04:30pm 24.6 20.7 3.3 25 10.5 NNW 13 20 7 11 1016.7 1016.5 0.0
28/04:00pm 24.7 21.5 2.8 24 10.7 WNW 9 17 5 9 1016.9 1016.7 0.0
28/03:30pm 25.4 22.3 3.4 24 11.0 NW 9 17 5 9 1017.2 1017.0 0.0
28/03:00pm 24.3 20.3 3.0 25 10.4 NW 13 20 7 11 1017.6 1017.4 0.0
28/02:30pm 24.8 22.6 6.1 30 9.7 N 7 13 4 7 1018.0 1017.8 0.0
28/02:00pm 24.7 21.5 5.0 28 10.0 NNE 11 20 6 11 1018.4 1018.2 0.0
28/01:30pm 23.9 20.8 3.8 27 10.0 NNW 9 15 5 8 1019.0 1018.9 0.0
28/01:00pm 24.6 22.4 6.4 31 9.5 W 7 17 4 9 1019.5 1019.4 0.0
28/12:30pm 23.4 19.9 3.4 27 9.8 ENE 11 20 6 11 1020.1 1019.9 0.0
28/12:00pm 22.7 19.4 2.2 26 9.8 ESE 9 15 5 8 1020.6 1020.4 0.0
28/11:30am 22.6 20.3 5.5 33 8.7 N 7 15 4 8 1020.9 1020.7 0.0
28/11:00am 22.4 20.4 7.0 37 8.0 NE 7 13 4 7 1021.3 1021.1 0.0
28/10:30am 21.9 19.9 8.8 43 7.0 NNE 9 15 5 8 1021.7 1021.5 0.0
28/10:00am 21.1 18.6 8.4 44 6.7 NE 11 19 6 10 1022.0 1021.9 0.0

Other Formats:

Comma delimited format used in spreadsheet applications
http://www.bom.gov.au/fwo/IDN60801/IDN60801.95719.axf

JavaScript Object Notation format (JSON) in row-major order
http://www.bom.gov.au/fwo/IDN60801/IDN60801.95719.json